createdAt,value
2023-01-11T00:02:01.982Z,98931.53
2023-01-11T00:04:30.641Z,98939.31
2023-01-11T00:06:58.219Z,98946.34
2023-01-11T00:09:25.057Z,98928.91
2023-01-11T00:11:51.766Z,98920.03
2023-01-11T00:14:18.545Z,98928.03
2023-01-11T00:16:45.256Z,98900.69
2023-01-11T00:19:12.152Z,98919.53
2023-01-11T00:21:38.953Z,98922.03
2023-01-11T00:24:06.129Z,98909.00
2023-01-11T00:26:32.770Z,98908.91
2023-01-11T00:28:59.524Z,98908.91
2023-01-11T00:31:26.384Z,98910.47
2023-01-11T00:33:53.162Z,98924.41
2023-01-11T00:36:19.882Z,98922.59
2023-01-11T00:38:51.323Z,98909.75
2023-01-11T00:41:37.095Z,98937.69
2023-01-11T00:44:23.062Z,98918.34
2023-01-11T00:47:08.901Z,98911.72
2023-01-11T00:49:36.386Z,98936.78
2023-01-11T00:52:08.657Z,98929.84
2023-01-11T00:54:40.142Z,98929.78
2023-01-11T00:57:07.673Z,98916.81
2023-01-11T00:59:35.531Z,98930.56
2023-01-11T01:02:02.700Z,98892.66
2023-01-11T01:04:29.301Z,98940.00
2023-01-11T01:06:56.176Z,98940.88
2023-01-11T01:09:23.199Z,98934.09
2023-01-11T01:11:50.026Z,98918.66
2023-01-11T01:14:26.049Z,98917.88
2023-01-11T01:16:53.601Z,98913.66
2023-01-11T01:19:21.464Z,98923.22
2023-01-11T01:21:49.907Z,98916.34
2023-01-11T01:24:16.681Z,98917.22
2023-01-11T01:26:43.482Z,98882.91
2023-01-11T01:29:10.263Z,98914.19
2023-01-11T01:31:37.081Z,98909.09
2023-01-11T01:34:03.870Z,98901.41
2023-01-11T01:36:30.646Z,98875.63
2023-01-11T01:38:59.876Z,98908.34
2023-01-11T01:41:26.919Z,98888.47
2023-01-11T01:43:54.979Z,98914.19
2023-01-11T01:46:23.807Z,98911.53
2023-01-11T01:49:08.726Z,98919.09
2023-01-11T01:51:40.674Z,98897.25
2023-01-11T01:54:12.367Z,98887.59
2023-01-11T01:56:46.389Z,98931.34
2023-01-11T01:59:16.491Z,98927.28
2023-01-11T02:01:49.944Z,98912.22
2023-01-11T02:04:24.529Z,98899.59
2023-01-11T02:06:56.525Z,98929.78
2023-01-11T02:09:30.816Z,98924.66
2023-01-11T02:11:58.535Z,98916.13
2023-01-11T02:14:27.131Z,98913.59
2023-01-11T02:16:54.145Z,98919.59
2023-01-11T02:19:45.361Z,98886.00
2023-01-11T02:22:14.828Z,98904.88
2023-01-11T02:25:03.091Z,98914.44
2023-01-11T02:28:02.854Z,98914.53
2023-01-11T02:30:35.468Z,98920.63
2023-01-11T02:33:27.035Z,98916.31
2023-01-11T02:36:02.876Z,98907.72
2023-01-11T02:38:42.333Z,98906.03
2023-01-11T02:41:50.981Z,98901.75
2023-01-11T02:44:54.513Z,98888.00
2023-01-11T02:47:35.382Z,98890.66
2023-01-11T02:50:20.800Z,98907.94
2023-01-11T02:53:03.359Z,98909.75
2023-01-11T02:55:37.577Z,98910.69
2023-01-11T02:58:08.343Z,98909.81
2023-01-11T03:00:40.138Z,98900.25
2023-01-11T03:03:22.914Z,98870.97
2023-01-11T03:05:57.160Z,98895.16
2023-01-11T03:08:51.399Z,98895.13
2023-01-11T03:11:45.773Z,98854.63
2023-01-11T03:14:29.344Z,98871.78
2023-01-11T03:17:14.790Z,98877.75
2023-01-11T03:22:10.294Z,98853.56
2023-01-11T03:24:50.597Z,98842.22
2023-01-11T03:27:31.470Z,98834.44
2023-01-11T03:30:29.067Z,98852.56
2023-01-11T03:33:06.694Z,98869.94
2023-01-11T03:35:45.831Z,98873.53
2023-01-11T03:38:27.572Z,98868.31
2023-01-11T03:41:01.290Z,98867.44
2023-01-11T03:43:29.046Z,98871.81
2023-01-11T03:46:04.797Z,98864.03
2023-01-11T03:48:42.359Z,98870.91
2023-01-11T03:51:12.685Z,98864.91
2023-01-11T03:53:43.455Z,98860.72
2023-01-11T03:56:14.197Z,98878.94
2023-01-11T03:58:41.034Z,98864.34
2023-01-11T04:01:08.145Z,98877.25
2023-01-11T04:03:34.961Z,98877.25
2023-01-11T04:06:03.112Z,98873.03
2023-01-11T04:08:31.229Z,98849.81
2023-01-11T04:10:58.200Z,98873.94
2023-01-11T04:13:24.974Z,98865.31
2023-01-11T04:15:53.550Z,98862.78
2023-01-11T04:18:20.501Z,98877.47
2023-01-11T04:20:47.341Z,98870.56
2023-01-11T04:23:15.466Z,98845.56
2023-01-11T04:25:42.328Z,98823.94
2023-01-11T04:28:09.442Z,98854.00
2023-01-11T04:30:37.550Z,98856.56
2023-01-11T04:33:04.591Z,98847.97
2023-01-11T04:35:31.809Z,98848.84
2023-01-11T04:37:58.446Z,98844.53
2023-01-11T04:40:26.216Z,98843.69
2023-01-11T04:42:52.975Z,98829.09
2023-01-11T04:45:20.087Z,98853.16
2023-01-11T04:47:46.927Z,98852.25
2023-01-11T04:50:13.933Z,98850.50
2023-01-11T04:52:41.893Z,98843.59
2023-01-11T04:55:09.554Z,98845.41
2023-01-11T04:57:36.713Z,98844.53
2023-01-11T05:00:11.358Z,98877.31
2023-01-11T05:02:39.241Z,98876.56
2023-01-11T05:05:07.513Z,98881.78
2023-01-11T05:07:34.848Z,98877.44
2023-01-11T05:10:04.021Z,98863.69
2023-01-11T05:12:30.835Z,98852.44
2023-01-11T05:14:59.650Z,98847.25
2023-01-11T05:17:26.545Z,98854.19
2023-01-11T05:19:53.310Z,98844.72
2023-01-11T05:22:20.159Z,98850.75
2023-01-11T05:24:47.972Z,98860.22
2023-01-11T05:27:14.778Z,98857.66
2023-01-11T05:29:44.334Z,98860.25
2023-01-11T05:32:12.458Z,98854.22
2023-01-11T05:34:45.546Z,98860.19
2023-01-11T05:37:12.295Z,98855.91
2023-01-11T05:39:39.088Z,98860.19
2023-01-11T05:42:07.000Z,98829.22
2023-01-11T05:44:53.220Z,98862.78
2023-01-11T05:47:20.184Z,98846.47
2023-01-11T05:49:49.081Z,98856.75
2023-01-11T05:52:16.095Z,98849.84
2023-01-11T05:54:44.957Z,98851.53
2023-01-11T05:57:11.993Z,98849.81
2023-01-11T05:59:39.764Z,98869.69
2023-01-11T06:02:07.189Z,98871.47
2023-01-11T06:04:35.363Z,98858.56
2023-01-11T06:07:02.097Z,98868.06
2023-01-11T06:09:29.012Z,98870.69
2023-01-11T06:11:55.796Z,98862.06
2023-01-11T06:14:23.682Z,98855.19
2023-01-11T06:16:51.570Z,98870.69
2023-01-11T06:19:19.484Z,98869.00
2023-01-11T06:21:46.217Z,98883.66
2023-01-11T06:24:14.055Z,98865.63
2023-01-11T06:26:41.020Z,98858.72
2023-01-11T06:29:14.754Z,98872.50
2023-01-11T06:31:41.616Z,98875.94
2023-01-11T06:34:11.971Z,98863.88
2023-01-11T06:36:39.527Z,98870.72
2023-01-11T06:39:07.386Z,98859.50
2023-01-11T06:41:34.172Z,98881.88
2023-01-11T06:44:02.113Z,98880.13
2023-01-11T06:46:29.256Z,98864.66
2023-01-11T06:48:57.610Z,98863.75
2023-01-11T06:51:24.303Z,98875.78
2023-01-11T06:53:54.177Z,98876.63
2023-01-11T06:56:20.973Z,98871.44
2023-01-11T06:58:49.825Z,98862.81
2023-01-11T07:01:18.214Z,98867.13
2023-01-11T07:03:48.653Z,98868.84
2023-01-11T07:06:15.403Z,98850.75
2023-01-11T07:08:43.273Z,98872.28
2023-01-11T07:11:11.001Z,98834.25
2023-01-11T07:13:38.827Z,98878.94
2023-01-11T07:16:05.692Z,98885.72
2023-01-11T07:18:33.662Z,98886.56
2023-01-11T07:21:00.433Z,98900.47
2023-01-11T07:23:27.256Z,98910.97
2023-01-11T07:25:58.740Z,98905.72
2023-01-11T07:28:29.389Z,98888.34
2023-01-11T07:30:59.187Z,98872.59
2023-01-11T07:33:26.828Z,98895.88
2023-01-11T07:35:58.233Z,98898.47
2023-01-11T07:38:25.258Z,98874.38
2023-01-11T07:40:55.160Z,98870.00
2023-01-11T07:43:25.283Z,98833.81
2023-01-11T07:45:57.628Z,98877.78
2023-01-11T07:48:26.713Z,98874.31
2023-01-11T07:50:55.295Z,98802.13
2023-01-11T07:53:25.804Z,98833.06
2023-01-11T07:55:55.893Z,98892.28
2023-01-11T07:58:25.562Z,98886.28
2023-01-11T08:00:59.575Z,98894.78
2023-01-11T08:03:29.584Z,98885.84
2023-01-11T08:05:57.766Z,98842.63
2023-01-11T08:08:24.561Z,98893.81
2023-01-11T08:11:12.924Z,98871.00
2023-01-11T08:14:00.579Z,98976.56
2023-01-11T08:16:27.665Z,98894.81
2023-01-11T08:18:56.517Z,98986.88
2023-01-11T08:21:23.559Z,98917.56
2023-01-11T08:23:52.639Z,98959.97
2023-01-11T08:26:19.405Z,98964.25
2023-01-11T08:28:46.584Z,98980.25
2023-01-11T08:31:13.531Z,98994.34
2023-01-11T08:33:41.405Z,98990.44
2023-01-11T08:36:10.563Z,98984.72
2023-01-11T08:38:41.879Z,98990.16
2023-01-11T08:41:10.808Z,98972.09
2023-01-11T08:43:39.887Z,98990.38
2023-01-11T08:46:10.496Z,98986.75
2023-01-11T08:48:39.511Z,98978.94
2023-01-11T08:51:06.449Z,98983.09
2023-01-11T08:53:33.394Z,98968.34
2023-01-11T08:56:06.618Z,98967.00
2023-01-11T08:58:33.619Z,98978.84
2023-01-11T09:01:03.923Z,98961.75
2023-01-11T09:03:30.905Z,98957.03
2023-01-11T09:05:57.863Z,98962.13
2023-01-11T09:08:25.627Z,98967.84
2023-01-11T09:10:53.435Z,98954.81
2023-01-11T09:13:20.243Z,98955.88
2023-01-11T09:15:47.125Z,98952.47
2023-01-11T09:18:14.984Z,98961.13
2023-01-11T09:20:41.779Z,98957.25
2023-01-11T09:23:08.616Z,98944.31
2023-01-11T09:25:35.490Z,98876.50
2023-01-11T09:28:03.400Z,98888.69
2023-01-11T09:30:30.280Z,98926.69
2023-01-11T09:32:57.678Z,98871.31
2023-01-11T09:35:24.734Z,98878.41
2023-01-11T09:37:54.526Z,98923.03
2023-01-11T09:40:31.045Z,98949.72
2023-01-11T09:43:01.394Z,98946.16
2023-01-11T09:45:35.418Z,98895.28
2023-01-11T09:48:23.275Z,98933.50
2023-01-11T09:50:50.296Z,98938.88
2023-01-11T09:53:35.093Z,98927.47
2023-01-11T09:56:05.495Z,98901.53
2023-01-11T09:58:49.038Z,98951.19
2023-01-11T10:01:39.510Z,98948.13
2023-01-11T10:04:24.489Z,98939.72
2023-01-11T10:07:23.105Z,98943.34
2023-01-11T10:18:25.376Z,98907.97
2023-01-11T10:19:33.439Z,98920.38
2023-01-11T10:22:08.272Z,98910.44
2023-01-11T10:24:50.278Z,98922.47
2023-01-11T10:27:36.436Z,98844.25
2023-01-11T10:31:08.413Z,98880.88
2023-01-11T10:34:05.986Z,98907.88
2023-01-11T10:37:01.763Z,98910.09
2023-01-11T10:40:06.444Z,98904.56
2023-01-11T10:42:45.883Z,98907.09
2023-01-11T10:45:25.531Z,98911.72
2023-01-11T10:48:03.566Z,98884.28
2023-01-11T10:51:03.537Z,98907.03
2023-01-11T10:54:01.081Z,98904.31
2023-01-11T10:57:01.689Z,98901.19
2023-01-11T10:59:43.736Z,98890.28
2023-01-11T11:02:35.347Z,98882.19
2023-01-11T11:05:18.968Z,98870.75
2023-01-11T11:08:26.638Z,98879.00
2023-01-11T11:11:26.753Z,98857.88
2023-01-11T11:14:12.699Z,98838.03
2023-01-11T11:17:01.231Z,98860.00
2023-01-11T11:19:32.569Z,98875.78
2023-01-11T11:22:00.195Z,98863.41
2023-01-11T11:24:38.550Z,98864.81
2023-01-11T11:27:26.504Z,98864.09
2023-01-11T11:30:42.660Z,98853.56
2023-01-11T11:33:20.691Z,98845.09
2023-01-11T11:35:56.919Z,98830.00
2023-01-11T11:38:26.635Z,98846.66
2023-01-11T11:41:17.677Z,98836.84
2023-01-11T11:44:08.080Z,98832.13
2023-01-11T11:46:34.886Z,98810.34
2023-01-11T11:49:16.824Z,98797.47
2023-01-11T11:51:46.997Z,98807.97
2023-01-11T11:54:31.015Z,98808.28
2023-01-11T11:57:11.981Z,98814.56
2023-01-11T11:59:39.427Z,98812.41
2023-01-11T12:02:21.208Z,98810.38
2023-01-11T12:04:49.724Z,98806.38
2023-01-11T12:07:19.890Z,98806.72
2023-01-11T12:10:00.458Z,98810.97
2023-01-11T12:12:29.528Z,98814.66
2023-01-11T12:15:08.558Z,98805.84
2023-01-11T12:17:35.588Z,98806.72
2023-01-11T12:20:23.305Z,98807.09
2023-01-11T12:23:07.619Z,98797.66
2023-01-11T12:25:41.347Z,98813.75
2023-01-11T12:28:29.696Z,98804.47
2023-01-11T12:31:12.632Z,98800.03
2023-01-11T12:34:00.189Z,98781.34
2023-01-11T12:36:35.962Z,98797.28
2023-01-11T12:39:08.627Z,98792.34
2023-01-11T12:41:56.787Z,98780.88
2023-01-11T12:44:41.718Z,98772.31
2023-01-11T12:47:42.339Z,98775.63
2023-01-11T12:50:25.394Z,98777.72
2023-01-11T12:53:07.104Z,98779.13
2023-01-11T12:55:58.911Z,98762.38
2023-01-11T12:58:56.320Z,98765.72
2023-01-11T13:01:44.961Z,98765.50
2023-01-11T13:04:51.157Z,98749.59
2023-01-11T13:07:28.121Z,98757.94
2023-01-11T13:10:21.376Z,98761.25
2023-01-11T13:13:05.958Z,98769.22
2023-01-11T13:15:42.206Z,98772.03
2023-01-11T13:18:44.206Z,98757.06
2023-01-11T13:21:17.543Z,98757.91
2023-01-11T13:23:54.871Z,98752.09
2023-01-11T13:26:31.011Z,98745.19
2023-01-11T13:29:13.153Z,98748.38
2023-01-11T13:31:41.492Z,98750.53
2023-01-11T13:34:38.670Z,98748.75
2023-01-11T13:37:28.451Z,98726.44
2023-01-11T13:40:03.450Z,98754.94
2023-01-11T13:42:35.643Z,98757.50
2023-01-11T13:45:20.909Z,98755.94
2023-01-11T13:47:58.214Z,98748.28
2023-01-11T13:50:47.418Z,98748.47
2023-01-11T13:53:28.440Z,98762.50
2023-01-11T13:56:06.406Z,98768.41
2023-01-11T13:59:03.312Z,98774.81
2023-01-11T14:02:08.622Z,98777.41
2023-01-11T14:05:10.806Z,98765.09
2023-01-11T14:08:06.648Z,98756.56
2023-01-11T14:11:00.746Z,98766.47
2023-01-11T14:13:52.334Z,98769.03
2023-01-11T14:16:19.099Z,98781.53
2023-01-11T14:19:01.335Z,98747.97
2023-01-11T14:21:55.698Z,98747.91
2023-01-11T14:24:24.770Z,98753.22
2023-01-11T14:27:14.908Z,98760.09
2023-01-11T14:30:08.201Z,98751.50
2023-01-11T14:32:48.923Z,98746.50
2023-01-11T14:35:40.803Z,98746.31
2023-01-11T14:38:45.498Z,98750.06
2023-01-11T14:41:41.417Z,98740.09
2023-01-11T14:44:53.109Z,98746.91
2023-01-11T14:47:36.523Z,98731.59
2023-01-11T14:50:33.943Z,98740.22
2023-01-11T14:53:03.771Z,98717.06
2023-01-11T14:55:34.959Z,98723.16
2023-01-11T14:58:16.038Z,98745.78
2023-01-11T15:00:42.899Z,98754.88
2023-01-11T15:03:09.579Z,98757.06
2023-01-11T15:05:43.076Z,98732.38
2023-01-11T15:08:23.761Z,98698.50
2023-01-11T15:11:07.791Z,98730.03
2023-01-11T15:13:54.849Z,98735.75
2023-01-11T15:16:43.691Z,98733.97
2023-01-11T15:19:26.563Z,98714.03
2023-01-11T15:21:55.948Z,98709.72
2023-01-11T15:24:31.869Z,98719.47
2023-01-11T15:27:00.959Z,98726.75
2023-01-11T15:29:33.627Z,98725.03
2023-01-11T15:32:26.310Z,98734.50
2023-01-11T15:34:53.734Z,98745.41
2023-01-11T15:37:50.448Z,98730.66
2023-01-11T15:40:26.184Z,98752.00
2023-01-11T15:43:04.011Z,98745.09
2023-01-11T15:46:08.040Z,98740.22
2023-01-11T15:48:48.586Z,98753.47
2023-01-11T15:51:18.091Z,98750.31
2023-01-11T15:54:13.895Z,98753.78
2023-01-11T15:57:02.530Z,98748.53
2023-01-11T15:59:45.911Z,98752.25
2023-01-11T16:02:18.421Z,98754.19
2023-01-11T16:04:57.305Z,98752.59
2023-01-11T16:07:44.122Z,98735.47
2023-01-11T16:10:41.719Z,98752.78
2023-01-11T16:13:46.156Z,98753.63
2023-01-11T16:16:21.127Z,98747.31
2023-01-11T16:19:14.532Z,98715.44
2023-01-11T16:21:43.927Z,98745.03
2023-01-11T16:24:17.786Z,98749.09
2023-01-11T16:26:49.694Z,98750.53
2023-01-11T16:29:37.230Z,98748.72
2023-01-11T16:32:18.613Z,98749.84
2023-01-11T16:34:47.602Z,98749.81
2023-01-11T16:37:23.147Z,98745.66
2023-01-11T16:39:53.778Z,98745.44
2023-01-11T16:42:21.094Z,98747.78
2023-01-11T16:44:58.123Z,98749.47
2023-01-11T16:47:24.992Z,98749.56
2023-01-11T16:50:20.646Z,98746.56
2023-01-11T16:52:53.788Z,98746.53
2023-01-11T16:55:32.640Z,98737.06
2023-01-11T16:58:22.112Z,98732.84
2023-01-11T17:01:06.275Z,98742.91
2023-01-11T17:03:36.141Z,98741.00
2023-01-11T17:06:15.283Z,98734.22
2023-01-11T17:08:47.917Z,98743.56
2023-01-11T17:11:37.111Z,98741.78
2023-01-11T17:14:25.662Z,98750.19
2023-01-11T17:16:54.986Z,98753.69
2023-01-11T17:19:26.376Z,98734.88
2023-01-11T17:21:59.839Z,98733.88
2023-01-11T17:24:27.520Z,98735.78
2023-01-11T17:26:59.050Z,98727.31
2023-01-11T17:29:31.006Z,98734.41
2023-01-11T17:31:59.526Z,98711.59
2023-01-11T17:34:35.106Z,98722.25
2023-01-11T17:37:04.704Z,98727.56
2023-01-11T17:39:34.557Z,98720.09
2023-01-11T17:42:22.460Z,98717.47
2023-01-11T17:45:10.674Z,98677.13
2023-01-11T17:47:42.677Z,98724.41
2023-01-11T17:50:31.013Z,98726.19
2023-01-11T17:53:21.295Z,98739.41
2023-01-11T17:55:52.158Z,98742.31
2023-01-11T17:58:31.205Z,98732.78
2023-01-11T18:01:18.304Z,98734.53
2023-01-11T18:03:51.677Z,98723.28
2023-01-11T18:06:21.515Z,98723.19
2023-01-11T18:08:52.687Z,98722.38
2023-01-11T18:11:33.610Z,98726.06
2023-01-11T18:14:04.539Z,98706.56
2023-01-11T18:16:31.897Z,98702.38
2023-01-11T18:18:59.091Z,98719.56
2023-01-11T18:21:25.648Z,98724.81
2023-01-11T18:24:14.314Z,98718.66
2023-01-11T18:26:43.498Z,98716.06
2023-01-11T18:29:19.422Z,98726.41
2023-01-11T18:31:46.375Z,98706.63
2023-01-11T18:34:13.180Z,98679.19
2023-01-11T18:36:39.984Z,98716.97
2023-01-11T18:39:12.993Z,98726.72
2023-01-11T18:41:58.243Z,98716.31
2023-01-11T18:44:25.145Z,98708.66
2023-01-11T18:46:51.846Z,98718.31
2023-01-11T18:49:18.595Z,98701.69
2023-01-11T18:51:45.320Z,98708.66
2023-01-11T18:54:16.979Z,98706.13
2023-01-11T18:56:44.206Z,98723.38
2023-01-11T18:59:10.786Z,98725.03
2023-01-11T19:01:54.024Z,98719.91
2023-01-11T19:04:25.417Z,98705.13
2023-01-11T19:06:52.396Z,98705.38
2023-01-11T19:09:19.211Z,98722.88
2023-01-11T19:11:45.957Z,98712.78
2023-01-11T19:14:12.745Z,98718.78
2023-01-11T19:16:39.694Z,98715.50
2023-01-11T19:19:06.526Z,98720.66
2023-01-11T19:21:33.301Z,98717.03
2023-01-11T19:24:00.124Z,98717.66
2023-01-11T19:26:27.872Z,98709.81
2023-01-11T19:28:54.594Z,98682.19
2023-01-11T19:31:21.383Z,98709.69
2023-01-11T19:33:48.239Z,98723.31
2023-01-11T19:36:15.065Z,98706.13
2023-01-11T19:38:41.796Z,98702.00
2023-01-11T19:41:10.400Z,98722.69
2023-01-11T19:43:37.181Z,98699.56
2023-01-11T19:46:04.136Z,98712.19
2023-01-11T19:48:34.712Z,98695.78
2023-01-11T19:51:03.494Z,98711.94
2023-01-11T19:53:31.478Z,98715.53
2023-01-11T19:56:03.587Z,98718.31
2023-01-11T19:58:30.613Z,98722.72
2023-01-11T20:00:57.975Z,98704.69
2023-01-11T20:03:25.764Z,98714.78
2023-01-11T20:05:52.470Z,98724.22
2023-01-11T20:08:19.235Z,98731.28
2023-01-11T20:10:47.766Z,98732.28
2023-01-11T20:13:14.569Z,98718.66
2023-01-11T20:15:41.550Z,98714.22
2023-01-11T20:18:08.371Z,98710.66
2023-01-11T20:20:35.158Z,98698.63
2023-01-11T20:23:01.916Z,98690.81
2023-01-11T20:25:28.660Z,98702.69
2023-01-11T20:27:55.365Z,98703.44
2023-01-11T20:30:23.793Z,98695.50
2023-01-11T20:32:50.577Z,98700.31
2023-01-11T20:35:17.383Z,98690.00
2023-01-11T20:37:44.118Z,98713.94
2023-01-11T20:40:13.602Z,98694.09
2023-01-11T20:42:41.041Z,98698.31
2023-01-11T20:45:08.436Z,98681.13
2023-01-11T20:47:35.231Z,98676.97
2023-01-11T20:50:01.999Z,98682.84
2023-01-11T20:52:28.831Z,98689.88
2023-01-11T20:54:55.568Z,98673.75
2023-01-11T20:57:22.727Z,98696.94
2023-01-11T20:59:49.414Z,98711.47
2023-01-11T21:02:16.203Z,98696.84
2023-01-11T21:04:43.254Z,98699.63
2023-01-11T21:07:11.343Z,98704.03
2023-01-11T21:09:38.440Z,98700.66
2023-01-11T21:12:05.575Z,98716.88
2023-01-11T21:14:32.231Z,98711.50
2023-01-11T21:16:59.018Z,98719.22
2023-01-11T21:19:26.623Z,98713.94
2023-01-11T21:21:53.383Z,98711.31
2023-01-11T21:24:20.971Z,98717.19
2023-01-11T21:26:48.362Z,98727.66
2023-01-11T21:29:15.121Z,98741.63
2023-01-11T21:31:42.308Z,98721.13
2023-01-11T21:34:11.920Z,98745.38
2023-01-11T21:36:38.793Z,98743.00
2023-01-11T21:39:06.039Z,98734.34
2023-01-11T21:41:51.803Z,98745.44
2023-01-11T21:44:19.640Z,98761.91
2023-01-11T21:46:46.794Z,98766.22
2023-01-11T21:49:13.748Z,98767.72
2023-01-11T21:51:41.029Z,98771.94
2023-01-11T21:54:11.491Z,98770.22
2023-01-11T21:56:38.822Z,98764.09
2023-01-11T21:59:05.709Z,98753.81
2023-01-11T22:01:32.457Z,98761.47
2023-01-11T22:03:59.764Z,98772.59
2023-01-11T22:06:26.973Z,98769.13
2023-01-11T22:08:53.687Z,98775.19
2023-01-11T22:11:20.424Z,98760.63
2023-01-11T22:13:47.179Z,98783.94
2023-01-11T22:16:17.281Z,98767.47
2023-01-11T22:18:45.869Z,98796.84
2023-01-11T22:21:19.667Z,98766.78
2023-01-11T22:23:47.627Z,98812.47
2023-01-11T22:26:17.075Z,98815.84
2023-01-11T22:29:03.714Z,98818.34
2023-01-11T22:31:31.755Z,98796.09
2023-01-11T22:33:59.725Z,98816.78
2023-01-11T22:36:28.182Z,98824.78
2023-01-11T22:38:55.910Z,98833.44
2023-01-11T22:41:24.394Z,98832.59
2023-01-11T22:43:51.595Z,98837.47
2023-01-11T22:46:19.399Z,98835.66
2023-01-11T22:48:49.616Z,98841.84
2023-01-11T22:51:18.383Z,98827.13
2023-01-11T22:53:47.697Z,98847.84
2023-01-11T22:56:18.798Z,98849.66
2023-01-11T22:58:46.962Z,98830.69
2023-01-11T23:01:21.829Z,98856.50
2023-01-11T23:03:49.662Z,98835.72
2023-01-11T23:06:21.851Z,98845.16
2023-01-11T23:08:48.928Z,98812.56
2023-01-11T23:11:44.354Z,98825.28
2023-01-11T23:14:13.820Z,98831.22
2023-01-11T23:16:41.369Z,98831.09
2023-01-11T23:19:09.306Z,98825.06
2023-01-11T23:21:36.135Z,98819.09
2023-01-11T23:24:03.603Z,98826.75
2023-01-11T23:26:30.403Z,98814.75
2023-01-11T23:28:57.535Z,98818.19
2023-01-11T23:31:26.424Z,98813.13
2023-01-11T23:33:56.793Z,98808.19
2023-01-11T23:36:27.434Z,98793.53
2023-01-11T23:38:54.362Z,98773.56
2023-01-11T23:41:40.247Z,98752.91
2023-01-11T23:44:12.748Z,98744.19
2023-01-11T23:46:59.196Z,98744.03
2023-01-11T23:49:26.700Z,98744.78
2023-01-11T23:51:54.756Z,98726.72
2023-01-11T23:54:22.089Z,98714.03
2023-01-11T23:56:49.370Z,98735.66
2023-01-11T23:59:15.953Z,98748.66
